sensor_id;sensor_type;location;lat;lon;timestamp;temperature;humidity
8711;DHT22;4392;47.400;8.062;2022-07-22T00:01:34;26.30;75.30
8711;DHT22;4392;47.400;8.062;2022-07-22T00:04:02;26.30;75.60
8711;DHT22;4392;47.400;8.062;2022-07-22T00:06:28;26.40;75.80
8711;DHT22;4392;47.400;8.062;2022-07-22T00:08:54;26.50;75.40
8711;DHT22;4392;47.400;8.062;2022-07-22T00:11:21;26.40;75.60
8711;DHT22;4392;47.400;8.062;2022-07-22T00:13:46;26.40;75.80
8711;DHT22;4392;47.400;8.062;2022-07-22T00:16:12;26.40;75.60
8711;DHT22;4392;47.400;8.062;2022-07-22T00:18:38;26.50;75.70
8711;DHT22;4392;47.400;8.062;2022-07-22T00:21:04;26.50;75.70
8711;DHT22;4392;47.400;8.062;2022-07-22T00:23:30;26.50;76.10
8711;DHT22;4392;47.400;8.062;2022-07-22T00:25:56;26.50;76.10
8711;DHT22;4392;47.400;8.062;2022-07-22T00:28:21;26.50;76.20
8711;DHT22;4392;47.400;8.062;2022-07-22T00:30:47;26.50;76.20
8711;DHT22;4392;47.400;8.062;2022-07-22T00:33:15;26.60;76.00
8711;DHT22;4392;47.400;8.062;2022-07-22T00:35:41;26.50;76.30
8711;DHT22;4392;47.400;8.062;2022-07-22T00:38:06;26.40;76.80
8711;DHT22;4392;47.400;8.062;2022-07-22T00:40:32;26.40;76.40
8711;DHT22;4392;47.400;8.062;2022-07-22T00:42:59;26.30;76.70
8711;DHT22;4392;47.400;8.062;2022-07-22T00:45:25;26.30;77.00
8711;DHT22;4392;47.400;8.062;2022-07-22T00:47:51;26.40;78.10
8711;DHT22;4392;47.400;8.062;2022-07-22T00:50:16;26.40;77.20
8711;DHT22;4392;47.400;8.062;2022-07-22T00:52:46;26.30;77.10
8711;DHT22;4392;47.400;8.062;2022-07-22T00:55:12;26.40;77.00
8711;DHT22;4392;47.400;8.062;2022-07-22T00:57:37;26.40;77.30
8711;DHT22;4392;47.400;8.062;2022-07-22T01:00:07;26.40;77.40
8711;DHT22;4392;47.400;8.062;2022-07-22T01:02:33;26.30;77.60
8711;DHT22;4392;47.400;8.062;2022-07-22T01:04:59;25.90;78.50
8711;DHT22;4392;47.400;8.062;2022-07-22T01:07:25;25.90;79.40
8711;DHT22;4392;47.400;8.062;2022-07-22T01:09:51;26.00;78.90
8711;DHT22;4392;47.400;8.062;2022-07-22T01:12:16;26.10;79.20
8711;DHT22;4392;47.400;8.062;2022-07-22T01:14:42;26.10;79.20
8711;DHT22;4392;47.400;8.062;2022-07-22T01:17:08;26.10;79.00
8711;DHT22;4392;47.400;8.062;2022-07-22T01:19:36;26.00;79.50
8711;DHT22;4392;47.400;8.062;2022-07-22T01:22:01;26.00;79.50
8711;DHT22;4392;47.400;8.062;2022-07-22T01:24:27;25.90;79.60
8711;DHT22;4392;47.400;8.062;2022-07-22T01:26:53;25.90;79.80
8711;DHT22;4392;47.400;8.062;2022-07-22T01:29:20;25.90;80.40
8711;DHT22;4392;47.400;8.062;2022-07-22T01:31:46;25.90;80.20
8711;DHT22;4392;47.400;8.062;2022-07-22T01:34:12;25.80;79.80
8711;DHT22;4392;47.400;8.062;2022-07-22T01:36:38;25.80;80.40
8711;DHT22;4392;47.400;8.062;2022-07-22T01:39:04;25.80;80.00
8711;DHT22;4392;47.400;8.062;2022-07-22T01:41:30;25.70;80.00
8711;DHT22;4392;47.400;8.062;2022-07-22T01:43:55;25.80;80.20
8711;DHT22;4392;47.400;8.062;2022-07-22T01:46:21;25.90;79.90
8711;DHT22;4392;47.400;8.062;2022-07-22T01:48:48;25.90;79.60
8711;DHT22;4392;47.400;8.062;2022-07-22T01:51:14;25.90;79.20
8711;DHT22;4392;47.400;8.062;2022-07-22T01:53:40;25.90;80.00
8711;DHT22;4392;47.400;8.062;2022-07-22T01:56:06;25.90;79.80
8711;DHT22;4392;47.400;8.062;2022-07-22T01:58:32;25.90;80.00
8711;DHT22;4392;47.400;8.062;2022-07-22T02:00:58;25.80;80.10
8711;DHT22;4392;47.400;8.062;2022-07-22T02:03:24;25.70;80.00
8711;DHT22;4392;47.400;8.062;2022-07-22T02:05:49;25.60;81.10
8711;DHT22;4392;47.400;8.062;2022-07-22T02:08:15;25.60;80.50
8711;DHT22;4392;47.400;8.062;2022-07-22T02:10:43;25.50;80.90
8711;DHT22;4392;47.400;8.062;2022-07-22T02:13:09;25.60;81.80
8711;DHT22;4392;47.400;8.062;2022-07-22T02:15:35;25.60;81.20
8711;DHT22;4392;47.400;8.062;2022-07-22T02:18:13;25.60;81.40
8711;DHT22;4392;47.400;8.062;2022-07-22T02:20:39;25.60;81.10
8711;DHT22;4392;47.400;8.062;2022-07-22T02:23:06;25.60;81.10
8711;DHT22;4392;47.400;8.062;2022-07-22T02:25:32;25.60;81.90
8711;DHT22;4392;47.400;8.062;2022-07-22T02:27:58;25.50;81.60
8711;DHT22;4392;47.400;8.062;2022-07-22T02:30:23;25.50;81.80
8711;DHT22;4392;47.400;8.062;2022-07-22T02:32:49;25.40;82.00
8711;DHT22;4392;47.400;8.062;2022-07-22T02:35:15;25.50;81.60
8711;DHT22;4392;47.400;8.062;2022-07-22T02:37:40;25.60;81.60
8711;DHT22;4392;47.400;8.062;2022-07-22T02:40:06;25.60;82.50
8711;DHT22;4392;47.400;8.062;2022-07-22T02:42:33;25.60;81.10
8711;DHT22;4392;47.400;8.062;2022-07-22T02:44:59;25.70;80.70
8711;DHT22;4392;47.400;8.062;2022-07-22T02:47:25;25.80;79.80
8711;DHT22;4392;47.400;8.062;2022-07-22T02:49:51;25.80;79.40
8711;DHT22;4392;47.400;8.062;2022-07-22T02:52:17;25.80;79.90
8711;DHT22;4392;47.400;8.062;2022-07-22T02:54:43;25.80;79.50
8711;DHT22;4392;47.400;8.062;2022-07-22T02:57:09;25.80;80.00
8711;DHT22;4392;47.400;8.062;2022-07-22T02:59:35;25.70;79.50
8711;DHT22;4392;47.400;8.062;2022-07-22T03:02:00;25.80;79.20
8711;DHT22;4392;47.400;8.062;2022-07-22T03:04:26;25.70;79.40
8711;DHT22;4392;47.400;8.062;2022-07-22T03:06:52;25.60;78.90
8711;DHT22;4392;47.400;8.062;2022-07-22T03:09:18;25.60;79.20
8711;DHT22;4392;47.400;8.062;2022-07-22T03:11:44;25.60;79.60
8711;DHT22;4392;47.400;8.062;2022-07-22T03:14:10;25.60;79.20
8711;DHT22;4392;47.400;8.062;2022-07-22T03:16:36;25.60;79.20
8711;DHT22;4392;47.400;8.062;2022-07-22T03:19:02;25.60;79.90
8711;DHT22;4392;47.400;8.062;2022-07-22T03:21:28;25.60;79.70
8711;DHT22;4392;47.400;8.062;2022-07-22T03:23:54;25.60;80.20
8711;DHT22;4392;47.400;8.062;2022-07-22T03:26:23;25.60;79.80
8711;DHT22;4392;47.400;8.062;2022-07-22T03:28:50;25.60;81.00
8711;DHT22;4392;47.400;8.062;2022-07-22T03:31:16;25.60;80.20
8711;DHT22;4392;47.400;8.062;2022-07-22T03:33:41;25.50;80.40
8711;DHT22;4392;47.400;8.062;2022-07-22T03:36:07;25.50;80.80
8711;DHT22;4392;47.400;8.062;2022-07-22T03:38:34;25.40;81.40
8711;DHT22;4392;47.400;8.062;2022-07-22T03:41:00;25.30;81.40
8711;DHT22;4392;47.400;8.062;2022-07-22T03:43:26;25.40;81.10
8711;DHT22;4392;47.400;8.062;2022-07-22T03:45:52;25.30;81.40
8711;DHT22;4392;47.400;8.062;2022-07-22T03:48:17;25.30;81.60
8711;DHT22;4392;47.400;8.062;2022-07-22T03:50:44;25.40;81.10
8711;DHT22;4392;47.400;8.062;2022-07-22T03:53:10;25.40;80.60
8711;DHT22;4392;47.400;8.062;2022-07-22T03:55:36;25.40;80.50
8711;DHT22;4392;47.400;8.062;2022-07-22T03:58:02;25.50;80.40
8711;DHT22;4392;47.400;8.062;2022-07-22T04:00:28;25.50;80.00
8711;DHT22;4392;47.400;8.062;2022-07-22T04:02:53;25.50;80.20
8711;DHT22;4392;47.400;8.062;2022-07-22T04:05:19;25.30;80.20
8711;DHT22;4392;47.400;8.062;2022-07-22T04:07:46;25.40;80.00
8711;DHT22;4392;47.400;8.062;2022-07-22T04:10:12;25.30;80.40
8711;DHT22;4392;47.400;8.062;2022-07-22T04:12:39;25.10;81.80
8711;DHT22;4392;47.400;8.062;2022-07-22T04:15:07;25.00;81.80
8711;DHT22;4392;47.400;8.062;2022-07-22T04:17:35;25.00;82.20
8711;DHT22;4392;47.400;8.062;2022-07-22T04:20:01;25.10;81.60
8711;DHT22;4392;47.400;8.062;2022-07-22T04:22:27;25.10;81.20
8711;DHT22;4392;47.400;8.062;2022-07-22T04:24:53;25.10;81.40
8711;DHT22;4392;47.400;8.062;2022-07-22T04:27:18;25.00;81.70
8711;DHT22;4392;47.400;8.062;2022-07-22T04:29:44;25.10;81.80
8711;DHT22;4392;47.400;8.062;2022-07-22T04:32:10;25.00;82.20
8711;DHT22;4392;47.400;8.062;2022-07-22T04:34:36;25.00;82.10
8711;DHT22;4392;47.400;8.062;2022-07-22T04:37:02;25.10;81.80
8711;DHT22;4392;47.400;8.062;2022-07-22T04:39:27;25.10;81.70
8711;DHT22;4392;47.400;8.062;2022-07-22T04:41:53;25.10;82.00
8711;DHT22;4392;47.400;8.062;2022-07-22T04:44:19;25.10;81.70
8711;DHT22;4392;47.400;8.062;2022-07-22T04:46:47;25.20;81.70
8711;DHT22;4392;47.400;8.062;2022-07-22T04:49:13;25.20;81.50
8711;DHT22;4392;47.400;8.062;2022-07-22T04:51:39;25.10;81.30
8711;DHT22;4392;47.400;8.062;2022-07-22T04:54:05;25.10;81.30
8711;DHT22;4392;47.400;8.062;2022-07-22T04:56:30;25.20;82.50
8711;DHT22;4392;47.400;8.062;2022-07-22T04:58:56;25.10;81.40
8711;DHT22;4392;47.400;8.062;2022-07-22T05:01:22;25.10;81.30
8711;DHT22;4392;47.400;8.062;2022-07-22T05:03:48;25.20;80.90
8711;DHT22;4392;47.400;8.062;2022-07-22T05:06:14;25.20;80.80
8711;DHT22;4392;47.400;8.062;2022-07-22T05:08:40;25.20;80.80
8711;DHT22;4392;47.400;8.062;2022-07-22T05:11:06;25.20;81.10
8711;DHT22;4392;47.400;8.062;2022-07-22T05:13:32;25.20;80.80
8711;DHT22;4392;47.400;8.062;2022-07-22T05:16:02;25.20;81.00
8711;DHT22;4392;47.400;8.062;2022-07-22T05:18:29;25.20;80.30
8711;DHT22;4392;47.400;8.062;2022-07-22T05:20:54;25.20;80.60
8711;DHT22;4392;47.400;8.062;2022-07-22T05:23:20;25.20;80.40
8711;DHT22;4392;47.400;8.062;2022-07-22T05:25:46;25.30;80.20
8711;DHT22;4392;47.400;8.062;2022-07-22T05:28:12;25.30;80.20
8711;DHT22;4392;47.400;8.062;2022-07-22T05:30:38;25.30;80.20
8711;DHT22;4392;47.400;8.062;2022-07-22T05:33:05;25.40;80.00
8711;DHT22;4392;47.400;8.062;2022-07-22T05:35:30;25.30;79.90
8711;DHT22;4392;47.400;8.062;2022-07-22T05:37:56;25.30;80.30
8711;DHT22;4392;47.400;8.062;2022-07-22T05:40:22;25.30;80.00
8711;DHT22;4392;47.400;8.062;2022-07-22T05:42:48;25.30;79.80
8711;DHT22;4392;47.400;8.062;2022-07-22T05:45:13;25.40;79.80
8711;DHT22;4392;47.400;8.062;2022-07-22T05:47:39;25.40;79.60
8711;DHT22;4392;47.400;8.062;2022-07-22T05:50:05;25.40;79.40
8711;DHT22;4392;47.400;8.062;2022-07-22T05:52:31;25.40;79.40
8711;DHT22;4392;47.400;8.062;2022-07-22T05:54:59;25.40;79.40
8711;DHT22;4392;47.400;8.062;2022-07-22T05:57:25;25.50;79.40
8711;DHT22;4392;47.400;8.062;2022-07-22T05:59:51;25.50;80.00
8711;DHT22;4392;47.400;8.062;2022-07-22T06:02:17;25.50;79.60
8711;DHT22;4392;47.400;8.062;2022-07-22T06:04:43;25.50;80.00
8711;DHT22;4392;47.400;8.062;2022-07-22T06:07:08;25.50;80.50
8711;DHT22;4392;47.400;8.062;2022-07-22T06:09:34;25.50;80.00
8711;DHT22;4392;47.400;8.062;2022-07-22T06:12:00;25.50;79.90
8711;DHT22;4392;47.400;8.062;2022-07-22T06:14:25;25.50;79.90
8711;DHT22;4392;47.400;8.062;2022-07-22T06:16:51;25.50;79.60
8711;DHT22;4392;47.400;8.062;2022-07-22T06:19:17;25.50;79.20
8711;DHT22;4392;47.400;8.062;2022-07-22T06:21:43;25.50;79.10
8711;DHT22;4392;47.400;8.062;2022-07-22T06:24:08;25.50;78.90
8711;DHT22;4392;47.400;8.062;2022-07-22T06:26:34;25.60;78.90
8711;DHT22;4392;47.400;8.062;2022-07-22T06:29:00;25.60;78.60
8711;DHT22;4392;47.400;8.062;2022-07-22T06:31:25;25.70;78.70
8711;DHT22;4392;47.400;8.062;2022-07-22T06:33:51;25.70;78.80
8711;DHT22;4392;47.400;8.062;2022-07-22T06:36:17;25.70;78.50
8711;DHT22;4392;47.400;8.062;2022-07-22T06:38:43;25.70;78.00
8711;DHT22;4392;47.400;8.062;2022-07-22T06:41:09;25.70;77.70
8711;DHT22;4392;47.400;8.062;2022-07-22T06:43:36;25.70;78.20
8711;DHT22;4392;47.400;8.062;2022-07-22T06:46:02;25.70;78.30
8711;DHT22;4392;47.400;8.062;2022-07-22T06:48:28;25.70;77.90
8711;DHT22;4392;47.400;8.062;2022-07-22T06:50:54;25.70;78.10
8711;DHT22;4392;47.400;8.062;2022-07-22T06:53:20;25.70;76.60
8711;DHT22;4392;47.400;8.062;2022-07-22T06:55:45;25.70;76.70
8711;DHT22;4392;47.400;8.062;2022-07-22T06:58:11;25.50;77.30
8711;DHT22;4392;47.400;8.062;2022-07-22T07:00:37;25.40;77.70
8711;DHT22;4392;47.400;8.062;2022-07-22T07:03:03;25.30;77.10
8711;DHT22;4392;47.400;8.062;2022-07-22T07:05:29;25.30;78.60
8711;DHT22;4392;47.400;8.062;2022-07-22T07:07:56;25.30;78.40
8711;DHT22;4392;47.400;8.062;2022-07-22T07:10:21;25.20;77.90
8711;DHT22;4392;47.400;8.062;2022-07-22T07:12:47;25.20;78.30
8711;DHT22;4392;47.400;8.062;2022-07-22T07:15:13;25.30;78.40
8711;DHT22;4392;47.400;8.062;2022-07-22T07:17:39;25.30;78.70
8711;DHT22;4392;47.400;8.062;2022-07-22T07:20:07;25.30;78.60
8711;DHT22;4392;47.400;8.062;2022-07-22T07:22:33;25.30;78.30
8711;DHT22;4392;47.400;8.062;2022-07-22T07:25:07;25.20;78.30
8711;DHT22;4392;47.400;8.062;2022-07-22T07:27:33;25.20;78.80
8711;DHT22;4392;47.400;8.062;2022-07-22T07:29:59;25.30;79.20
8711;DHT22;4392;47.400;8.062;2022-07-22T07:32:26;25.30;79.70
8711;DHT22;4392;47.400;8.062;2022-07-22T07:34:52;25.20;79.80
8711;DHT22;4392;47.400;8.062;2022-07-22T07:37:17;25.20;79.90
8711;DHT22;4392;47.400;8.062;2022-07-22T07:39:43;25.20;79.80
8711;DHT22;4392;47.400;8.062;2022-07-22T07:42:09;25.20;79.50
8711;DHT22;4392;47.400;8.062;2022-07-22T07:44:37;25.30;79.60
8711;DHT22;4392;47.400;8.062;2022-07-22T07:47:03;25.30;79.90
8711;DHT22;4392;47.400;8.062;2022-07-22T07:49:31;25.30;79.90
8711;DHT22;4392;47.400;8.062;2022-07-22T07:51:57;25.30;79.70
8711;DHT22;4392;47.400;8.062;2022-07-22T07:54:22;25.40;79.60
8711;DHT22;4392;47.400;8.062;2022-07-22T07:56:52;25.50;79.50
8711;DHT22;4392;47.400;8.062;2022-07-22T07:59:21;25.40;79.60
8711;DHT22;4392;47.400;8.062;2022-07-22T08:01:47;25.50;79.90
8711;DHT22;4392;47.400;8.062;2022-07-22T08:04:13;25.50;79.90
8711;DHT22;4392;47.400;8.062;2022-07-22T08:06:39;25.40;80.30
8711;DHT22;4392;47.400;8.062;2022-07-22T08:09:05;25.50;80.50
8711;DHT22;4392;47.400;8.062;2022-07-22T08:11:30;25.50;80.50
8711;DHT22;4392;47.400;8.062;2022-07-22T08:13:56;25.50;80.70
8711;DHT22;4392;47.400;8.062;2022-07-22T08:16:22;25.50;80.40
8711;DHT22;4392;47.400;8.062;2022-07-22T08:18:48;25.50;80.50
8711;DHT22;4392;47.400;8.062;2022-07-22T08:21:14;25.50;80.80
8711;DHT22;4392;47.400;8.062;2022-07-22T08:23:40;25.60;80.90
8711;DHT22;4392;47.400;8.062;2022-07-22T08:26:06;25.60;81.20
8711;DHT22;4392;47.400;8.062;2022-07-22T08:28:32;25.60;81.40
8711;DHT22;4392;47.400;8.062;2022-07-22T08:30:57;25.60;81.40
8711;DHT22;4392;47.400;8.062;2022-07-22T08:33:23;25.70;81.30
8711;DHT22;4392;47.400;8.062;2022-07-22T08:35:51;25.70;81.80
8711;DHT22;4392;47.400;8.062;2022-07-22T08:38:17;25.70;81.60
8711;DHT22;4392;47.400;8.062;2022-07-22T08:40:43;25.80;81.60
8711;DHT22;4392;47.400;8.062;2022-07-22T08:43:09;25.80;81.50
8711;DHT22;4392;47.400;8.062;2022-07-22T08:45:34;25.80;81.70
8711;DHT22;4392;47.400;8.062;2022-07-22T08:48:00;25.90;81.60
8711;DHT22;4392;47.400;8.062;2022-07-22T08:50:29;25.90;81.70
8711;DHT22;4392;47.400;8.062;2022-07-22T08:52:56;25.90;82.20
8711;DHT22;4392;47.400;8.062;2022-07-22T08:55:22;25.90;82.70
8711;DHT22;4392;47.400;8.062;2022-07-22T08:57:48;25.90;82.50
8711;DHT22;4392;47.400;8.062;2022-07-22T09:00:20;26.00;82.30
8711;DHT22;4392;47.400;8.062;2022-07-22T09:02:46;26.00;82.50
8711;DHT22;4392;47.400;8.062;2022-07-22T09:05:14;26.00;82.20
8711;DHT22;4392;47.400;8.062;2022-07-22T09:07:42;26.20;81.90
8711;DHT22;4392;47.400;8.062;2022-07-22T09:10:17;26.20;82.50
8711;DHT22;4392;47.400;8.062;2022-07-22T09:12:54;26.20;81.90
8711;DHT22;4392;47.400;8.062;2022-07-22T09:15:47;26.20;82.70
8711;DHT22;4392;47.400;8.062;2022-07-22T09:18:13;26.10;83.60
8711;DHT22;4392;47.400;8.062;2022-07-22T09:20:41;26.30;82.70
8711;DHT22;4392;47.400;8.062;2022-07-22T09:23:19;26.30;82.50
8711;DHT22;4392;47.400;8.062;2022-07-22T09:25:48;26.30;83.20
8711;DHT22;4392;47.400;8.062;2022-07-22T09:28:17;26.30;83.30
8711;DHT22;4392;47.400;8.062;2022-07-22T09:30:49;26.40;83.60
8711;DHT22;4392;47.400;8.062;2022-07-22T09:33:16;26.40;83.60
8711;DHT22;4392;47.400;8.062;2022-07-22T09:35:43;26.40;83.20
8711;DHT22;4392;47.400;8.062;2022-07-22T09:38:11;26.40;82.60
8711;DHT22;4392;47.400;8.062;2022-07-22T09:40:42;26.30;83.70
8711;DHT22;4392;47.400;8.062;2022-07-22T09:43:12;26.20;83.30
8711;DHT22;4392;47.400;8.062;2022-07-22T09:48:13;26.30;81.90
8711;DHT22;4392;47.400;8.062;2022-07-22T09:50:41;26.40;82.30
8711;DHT22;4392;47.400;8.062;2022-07-22T09:53:11;26.30;82.70
8711;DHT22;4392;47.400;8.062;2022-07-22T09:55:39;26.40;83.60
8711;DHT22;4392;47.400;8.062;2022-07-22T09:58:05;26.40;84.00
8711;DHT22;4392;47.400;8.062;2022-07-22T10:00:34;26.40;84.20
8711;DHT22;4392;47.400;8.062;2022-07-22T10:03:03;26.40;85.00
8711;DHT22;4392;47.400;8.062;2022-07-22T10:05:31;26.40;85.40
8711;DHT22;4392;47.400;8.062;2022-07-22T10:08:02;26.50;83.90
8711;DHT22;4392;47.400;8.062;2022-07-22T10:10:29;26.50;82.70
8711;DHT22;4392;47.400;8.062;2022-07-22T10:12:57;26.50;81.10
8711;DHT22;4392;47.400;8.062;2022-07-22T10:15:24;26.50;81.10
8711;DHT22;4392;47.400;8.062;2022-07-22T10:17:52;26.50;81.10
8711;DHT22;4392;47.400;8.062;2022-07-22T10:20:23;26.50;80.60
8711;DHT22;4392;47.400;8.062;2022-07-22T10:23:01;26.60;80.90
8711;DHT22;4392;47.400;8.062;2022-07-22T10:25:31;26.60;80.10
8711;DHT22;4392;47.400;8.062;2022-07-22T10:28:03;26.60;80.70
8711;DHT22;4392;47.400;8.062;2022-07-22T10:30:30;26.60;82.40
8711;DHT22;4392;47.400;8.062;2022-07-22T10:33:14;26.70;78.50
8711;DHT22;4392;47.400;8.062;2022-07-22T10:38:11;26.70;79.30
8711;DHT22;4392;47.400;8.062;2022-07-22T10:43:20;26.80;79.30
8711;DHT22;4392;47.400;8.062;2022-07-22T10:48:19;26.80;79.10
8711;DHT22;4392;47.400;8.062;2022-07-22T10:50:54;26.90;78.30
8711;DHT22;4392;47.400;8.062;2022-07-22T10:53:25;27.00;79.40
8711;DHT22;4392;47.400;8.062;2022-07-22T10:59:12;27.00;78.50
8711;DHT22;4392;47.400;8.062;2022-07-22T11:01:40;27.00;77.50
8711;DHT22;4392;47.400;8.062;2022-07-22T11:04:19;26.90;77.80
8711;DHT22;4392;47.400;8.062;2022-07-22T11:06:48;27.00;76.30
8711;DHT22;4392;47.400;8.062;2022-07-22T11:09:16;27.00;76.40
8711;DHT22;4392;47.400;8.062;2022-07-22T11:11:50;27.10;75.90
8711;DHT22;4392;47.400;8.062;2022-07-22T11:14:20;27.10;76.40
8711;DHT22;4392;47.400;8.062;2022-07-22T11:16:49;27.20;77.30
8711;DHT22;4392;47.400;8.062;2022-07-22T11:19:20;27.30;77.60
8711;DHT22;4392;47.400;8.062;2022-07-22T11:21:50;27.20;77.10
8711;DHT22;4392;47.400;8.062;2022-07-22T11:24:18;27.20;75.60
8711;DHT22;4392;47.400;8.062;2022-07-22T11:26:47;27.20;74.40
8711;DHT22;4392;47.400;8.062;2022-07-22T11:29:25;27.20;73.50
8711;DHT22;4392;47.400;8.062;2022-07-22T11:31:52;27.20;72.10
8711;DHT22;4392;47.400;8.062;2022-07-22T11:34:18;27.30;70.40
8711;DHT22;4392;47.400;8.062;2022-07-22T11:36:46;27.30;69.90
8711;DHT22;4392;47.400;8.062;2022-07-22T11:39:14;27.40;71.20
8711;DHT22;4392;47.400;8.062;2022-07-22T11:41:41;27.40;71.10
8711;DHT22;4392;47.400;8.062;2022-07-22T11:44:07;27.40;71.60
8711;DHT22;4392;47.400;8.062;2022-07-22T11:46:41;27.40;70.30
8711;DHT22;4392;47.400;8.062;2022-07-22T11:49:08;27.40;70.60
8711;DHT22;4392;47.400;8.062;2022-07-22T11:51:36;27.40;71.40
8711;DHT22;4392;47.400;8.062;2022-07-22T11:54:04;27.50;71.90
8711;DHT22;4392;47.400;8.062;2022-07-22T11:56:30;27.50;71.00
8711;DHT22;4392;47.400;8.062;2022-07-22T11:58:57;27.50;70.70
8711;DHT22;4392;47.400;8.062;2022-07-22T12:01:27;27.50;69.90
8711;DHT22;4392;47.400;8.062;2022-07-22T12:04:07;27.50;69.40
8711;DHT22;4392;47.400;8.062;2022-07-22T12:06:34;27.60;68.80
8711;DHT22;4392;47.400;8.062;2022-07-22T12:09:06;27.60;69.30
8711;DHT22;4392;47.400;8.062;2022-07-22T12:11:35;27.70;67.30
8711;DHT22;4392;47.400;8.062;2022-07-22T12:14:10;27.80;68.00
8711;DHT22;4392;47.400;8.062;2022-07-22T12:16:36;27.70;67.90
8711;DHT22;4392;47.400;8.062;2022-07-22T12:19:05;27.70;67.30
8711;DHT22;4392;47.400;8.062;2022-07-22T12:21:37;27.70;66.00
8711;DHT22;4392;47.400;8.062;2022-07-22T12:24:15;27.70;66.40
8711;DHT22;4392;47.400;8.062;2022-07-22T12:29:25;27.70;65.20
8711;DHT22;4392;47.400;8.062;2022-07-22T12:31:58;27.80;65.40
8711;DHT22;4392;47.400;8.062;2022-07-22T12:37:24;27.90;65.10
8711;DHT22;4392;47.400;8.062;2022-07-22T12:43:01;28.00;65.10
8711;DHT22;4392;47.400;8.062;2022-07-22T12:45:29;28.10;65.10
8711;DHT22;4392;47.400;8.062;2022-07-22T12:50:27;28.30;64.60
8711;DHT22;4392;47.400;8.062;2022-07-22T12:52:57;28.30;64.10
8711;DHT22;4392;47.400;8.062;2022-07-22T12:55:24;28.40;63.80
8711;DHT22;4392;47.400;8.062;2022-07-22T12:57:50;28.40;63.40
8711;DHT22;4392;47.400;8.062;2022-07-22T13:00:24;28.50;63.20
8711;DHT22;4392;47.400;8.062;2022-07-22T13:02:50;28.60;61.60
8711;DHT22;4392;47.400;8.062;2022-07-22T13:05:17;28.70;60.90
8711;DHT22;4392;47.400;8.062;2022-07-22T13:07:43;28.70;60.60
8711;DHT22;4392;47.400;8.062;2022-07-22T13:10:11;29.00;62.10
8711;DHT22;4392;47.400;8.062;2022-07-22T13:12:37;29.10;60.00
8711;DHT22;4392;47.400;8.062;2022-07-22T13:15:04;29.10;60.10
8711;DHT22;4392;47.400;8.062;2022-07-22T13:17:29;29.10;59.90
8711;DHT22;4392;47.400;8.062;2022-07-22T13:19:55;29.10;59.70
8711;DHT22;4392;47.400;8.062;2022-07-22T13:22:21;29.30;59.30
8711;DHT22;4392;47.400;8.062;2022-07-22T13:24:47;29.40;58.60
8711;DHT22;4392;47.400;8.062;2022-07-22T13:27:12;29.60;59.20
8711;DHT22;4392;47.400;8.062;2022-07-22T13:29:38;29.70;58.70
8711;DHT22;4392;47.400;8.062;2022-07-22T13:32:05;29.70;58.50
8711;DHT22;4392;47.400;8.062;2022-07-22T13:34:31;29.80;57.50
8711;DHT22;4392;47.400;8.062;2022-07-22T13:36:57;29.90;58.00
8711;DHT22;4392;47.400;8.062;2022-07-22T13:39:23;29.90;57.30
8711;DHT22;4392;47.400;8.062;2022-07-22T13:41:49;29.90;56.20
8711;DHT22;4392;47.400;8.062;2022-07-22T13:44:15;30.00;54.60
8711;DHT22;4392;47.400;8.062;2022-07-22T13:46:41;30.20;52.50
8711;DHT22;4392;47.400;8.062;2022-07-22T13:49:07;30.20;52.20
8711;DHT22;4392;47.400;8.062;2022-07-22T13:51:33;30.30;51.90
8711;DHT22;4392;47.400;8.062;2022-07-22T13:53:59;30.30;51.30
8711;DHT22;4392;47.400;8.062;2022-07-22T13:56:25;30.40;50.30
8711;DHT22;4392;47.400;8.062;2022-07-22T13:58:51;30.50;50.70
8711;DHT22;4392;47.400;8.062;2022-07-22T14:01:17;30.70;50.40
8711;DHT22;4392;47.400;8.062;2022-07-22T14:03:43;30.70;51.00
8711;DHT22;4392;47.400;8.062;2022-07-22T14:06:08;30.60;51.70
8711;DHT22;4392;47.400;8.062;2022-07-22T14:08:35;30.80;51.50
8711;DHT22;4392;47.400;8.062;2022-07-22T14:11:01;31.00;50.60
8711;DHT22;4392;47.400;8.062;2022-07-22T14:13:27;31.10;50.40
8711;DHT22;4392;47.400;8.062;2022-07-22T14:15:55;31.20;50.20
8711;DHT22;4392;47.400;8.062;2022-07-22T14:18:21;31.40;48.80
8711;DHT22;4392;47.400;8.062;2022-07-22T14:20:47;31.40;47.60
8711;DHT22;4392;47.400;8.062;2022-07-22T14:23:13;31.50;46.60
8711;DHT22;4392;47.400;8.062;2022-07-22T14:25:40;31.50;46.40
8711;DHT22;4392;47.400;8.062;2022-07-22T14:28:07;31.50;46.30
8711;DHT22;4392;47.400;8.062;2022-07-22T14:30:33;31.50;45.70
8711;DHT22;4392;47.400;8.062;2022-07-22T14:33:00;31.50;45.10
8711;DHT22;4392;47.400;8.062;2022-07-22T14:35:26;31.60;45.10
8711;DHT22;4392;47.400;8.062;2022-07-22T14:37:52;31.60;44.90
8711;DHT22;4392;47.400;8.062;2022-07-22T14:40:20;31.80;45.10
8711;DHT22;4392;47.400;8.062;2022-07-22T14:42:46;32.10;46.20
8711;DHT22;4392;47.400;8.062;2022-07-22T14:45:14;32.30;44.90
8711;DHT22;4392;47.400;8.062;2022-07-22T14:47:39;32.30;44.50
8711;DHT22;4392;47.400;8.062;2022-07-22T14:50:06;32.30;44.70
8711;DHT22;4392;47.400;8.062;2022-07-22T14:52:32;32.30;44.80
8711;DHT22;4392;47.400;8.062;2022-07-22T14:54:57;32.30;44.50
8711;DHT22;4392;47.400;8.062;2022-07-22T14:57:23;32.40;44.80
8711;DHT22;4392;47.400;8.062;2022-07-22T14:59:49;32.50;44.80
8711;DHT22;4392;47.400;8.062;2022-07-22T15:02:15;32.70;45.20
8711;DHT22;4392;47.400;8.062;2022-07-22T15:04:41;33.00;44.80
8711;DHT22;4392;47.400;8.062;2022-07-22T15:07:07;33.00;44.80
8711;DHT22;4392;47.400;8.062;2022-07-22T15:09:33;33.00;44.60
8711;DHT22;4392;47.400;8.062;2022-07-22T15:11:59;33.00;44.50
8711;DHT22;4392;47.400;8.062;2022-07-22T15:14:25;33.20;44.50
8711;DHT22;4392;47.400;8.062;2022-07-22T15:16:51;33.20;44.50
8711;DHT22;4392;47.400;8.062;2022-07-22T15:19:20;33.30;44.50
8711;DHT22;4392;47.400;8.062;2022-07-22T15:21:45;33.30;44.40
8711;DHT22;4392;47.400;8.062;2022-07-22T15:24:12;33.60;44.40
8711;DHT22;4392;47.400;8.062;2022-07-22T15:26:38;33.60;44.60
8711;DHT22;4392;47.400;8.062;2022-07-22T15:29:04;33.60;44.40
8711;DHT22;4392;47.400;8.062;2022-07-22T15:31:30;33.60;44.20
8711;DHT22;4392;47.400;8.062;2022-07-22T15:34:00;33.60;44.00
8711;DHT22;4392;47.400;8.062;2022-07-22T15:36:26;33.70;44.10
8711;DHT22;4392;47.400;8.062;2022-07-22T15:38:52;33.90;43.90
8711;DHT22;4392;47.400;8.062;2022-07-22T15:41:18;34.00;43.70
8711;DHT22;4392;47.400;8.062;2022-07-22T15:43:45;34.10;43.50
8711;DHT22;4392;47.400;8.062;2022-07-22T15:46:11;34.20;43.30
8711;DHT22;4392;47.400;8.062;2022-07-22T15:48:37;34.40;42.60
8711;DHT22;4392;47.400;8.062;2022-07-22T15:51:07;34.50;42.80
8711;DHT22;4392;47.400;8.062;2022-07-22T15:53:34;34.40;40.90
8711;DHT22;4392;47.400;8.062;2022-07-22T15:56:00;34.20;40.70
8711;DHT22;4392;47.400;8.062;2022-07-22T15:58:26;34.20;39.10
8711;DHT22;4392;47.400;8.062;2022-07-22T16:01:10;34.20;37.10
8711;DHT22;4392;47.400;8.062;2022-07-22T16:03:36;34.20;36.70
8711;DHT22;4392;47.400;8.062;2022-07-22T16:06:02;34.10;37.00
8711;DHT22;4392;47.400;8.062;2022-07-22T16:08:28;34.00;36.40
8711;DHT22;4392;47.400;8.062;2022-07-22T16:10:54;34.10;36.50
8711;DHT22;4392;47.400;8.062;2022-07-22T16:13:20;34.10;36.20
8711;DHT22;4392;47.400;8.062;2022-07-22T16:15:46;33.90;35.60
8711;DHT22;4392;47.400;8.062;2022-07-22T16:18:12;33.90;36.10
8711;DHT22;4392;47.400;8.062;2022-07-22T16:20:38;33.90;36.30
8711;DHT22;4392;47.400;8.062;2022-07-22T16:23:04;34.10;36.60
8711;DHT22;4392;47.400;8.062;2022-07-22T16:25:30;34.20;36.60